Terminal Aerodrome Forecast
Issued by NWS Chicago, IL

Home | Current Version | Previous Version | Text Only | Print | Product List | Glossary On
Versions: 1 2 3 4 5 6 7 8 9 10 11 12 13 14 15 16 17 18 19 20 21 22 23 24 25 26 27 28 29 30 31 32 33 34 35 36 37 38 39 40 41 42 43 44 45 46 47 48 49 50
000
FTUS43 KLOT 221740 AAN
TAFRFD
TAF AMD
KRFD 221740Z 2218/2318 10009KT 2SM BR OVC005
      TEMPO 2218/2219 1SM -DZ BR OVC003
     FM222100 13009KT P6SM BKN010
     FM222300 18011KT P6SM SCT040 SCT250
     FM230100 19016G26KT P6SM SCT250
     FM230830 32013G20KT 6SM -SHRA BKN007 OVC010 PROB30 2309/2312
      3SM -TSRA OVC006CB
     FM231600 32013G20KT P6SM OVC010=

USA.gov is the U.S. government's official web portal to all federal, state and local government web resources and services.